Time,TemperatureF,DewpointF,PressureIn,WindDirection,WindDirectionDegrees,WindSpeedMPH,WindSpeedGustMPH,Humidity,HourlyPrecipIn,Conditions,Clouds,dailyrainin,SoftwareType,DateUTC
2013-07-11 00:05:00,66.6,61.6,30.01,ENE,62,0.0,0.0,84,0.00,,,0.00,Wunderground v.1.15,2013-07-11 05:05:00,
2013-07-11 00:10:00,66.4,61.4,30.01,ENE,62,0.0,0.0,84,0.00,,,0.00,Wunderground v.1.15,2013-07-11 05:10:00,
2013-07-11 00:15:00,66.3,61.3,30.01,ENE,62,0.0,0.0,84,0.00,,,0.00,Wunderground v.1.15,2013-07-11 05:15:00,
2013-07-11 00:25:00,66.0,61.0,30.02,ENE,62,0.0,0.0,84,0.00,,,0.00,Wunderground v.1.15,2013-07-11 05:25:00,
2013-07-11 00:30:00,65.9,60.9,30.02,ENE,62,0.0,0.0,84,0.00,,,0.00,Wunderground v.1.15,2013-07-11 05:30:00,
2013-07-11 00:40:00,65.6,60.6,30.03,ENE,62,0.0,0.0,84,0.00,,,0.00,Wunderground v.1.15,2013-07-11 05:40:00,
2013-07-11 00:45:00,65.5,60.5,30.03,ENE,62,0.0,0.0,84,0.00,,,0.00,Wunderground v.1.15,2013-07-11 05:45:00,
2013-07-11 00:55:00,65.2,60.2,30.03,ENE,62,0.0,0.0,84,0.00,,,0.00,Wunderground v.1.15,2013-07-11 05:55:00,
2013-07-11 01:00:00,65.0,60.4,30.03,ENE,62,0.0,0.0,85,0.00,,,0.00,Wunderground v.1.15,2013-07-11 06:00:00,
2013-07-11 01:05:00,64.9,60.6,30.03,ENE,62,0.0,0.0,86,0.00,,,0.00,Wunderground v.1.15,2013-07-11 06:05:00,
2013-07-11 01:15:00,64.8,60.5,30.02,ENE,62,0.0,0.0,86,0.00,,,0.00,Wunderground v.1.15,2013-07-11 06:15:00,
2013-07-11 01:20:00,64.7,60.4,30.02,ENE,62,0.0,0.0,86,0.00,,,0.00,Wunderground v.1.15,2013-07-11 06:20:00,
2013-07-11 01:25:00,64.6,60.3,30.02,ENE,62,0.0,0.0,86,0.00,,,0.00,Wunderground v.1.15,2013-07-11 06:25:00,
2013-07-11 01:35:00,64.4,60.1,30.02,ENE,62,0.0,0.0,86,0.00,,,0.00,Wunderground v.1.15,2013-07-11 06:35:00,
2013-07-11 01:40:00,64.3,60.0,30.02,ENE,62,0.0,0.0,86,0.00,,,0.00,Wunderground v.1.15,2013-07-11 06:40:00,
2013-07-11 01:50:00,64.1,59.8,30.02,ENE,62,0.0,0.0,86,0.00,,,0.00,Wunderground v.1.15,2013-07-11 06:50:00,
2013-07-11 01:55:00,64.0,59.7,30.03,ENE,62,0.0,0.0,86,0.00,,,0.00,Wunderground v.1.15,2013-07-11 06:55:00,
2013-07-11 02:05:00,63.9,59.6,30.03,ENE,62,0.0,0.0,86,0.00,,,0.00,Wunderground v.1.15,2013-07-11 07:05:00,
2013-07-11 02:10:00,63.8,59.5,30.03,ENE,62,0.0,0.0,86,0.00,,,0.00,Wunderground v.1.15,2013-07-11 07:10:00,
2013-07-11 02:20:00,63.6,59.3,30.03,ENE,62,0.0,0.0,86,0.00,,,0.00,Wunderground v.1.15,2013-07-11 07:20:00,
2013-07-11 02:25:00,63.4,59.1,30.03,ENE,59,0.0,0.0,86,0.00,,,0.00,Wunderground v.1.15,2013-07-11 07:25:00,
2013-07-11 02:35:00,63.2,59.3,30.03,ENE,58,0.0,0.0,87,0.00,,,0.00,Wunderground v.1.15,2013-07-11 07:35:00,
2013-07-11 02:40:00,63.1,59.2,30.03,ENE,58,0.0,0.0,87,0.00,,,0.00,Wunderground v.1.15,2013-07-11 07:40:00,
2013-07-11 02:45:00,63.0,59.1,30.03,ENE,57,0.0,0.0,87,0.00,,,0.00,Wunderground v.1.15,2013-07-11 07:45:00,
2013-07-11 02:55:00,62.9,59.0,30.03,NE,53,0.0,0.0,87,0.00,,,0.00,Wunderground v.1.15,2013-07-11 07:55:00,
2013-07-11 03:00:00,62.8,58.9,30.03,NE,53,0.0,0.0,87,0.00,,,0.00,Wunderground v.1.15,2013-07-11 08:00:00,
2013-07-11 03:10:00,62.6,58.7,30.03,NE,53,0.0,0.0,87,0.00,,,0.00,Wunderground v.1.15,2013-07-11 08:10:00,
2013-07-11 03:15:00,62.4,58.5,30.03,NE,53,0.0,0.0,87,0.00,,,0.00,Wunderground v.1.15,2013-07-11 08:15:00,
2013-07-11 03:25:00,62.2,58.6,30.03,NE,53,0.0,0.0,88,0.00,,,0.00,Wunderground v.1.15,2013-07-11 08:25:00,
2013-07-11 03:30:00,62.1,58.5,30.03,NE,50,0.0,0.0,88,0.00,,,0.00,Wunderground v.1.15,2013-07-11 08:30:00,
2013-07-11 03:35:00,62.0,58.4,30.03,NE,49,0.0,0.0,88,0.00,,,0.00,Wunderground v.1.15,2013-07-11 08:35:00,
2013-07-11 03:45:00,61.7,58.1,30.03,NE,40,0.0,0.0,88,0.00,,,0.00,Wunderground v.1.15,2013-07-11 08:45:00,
2013-07-11 03:50:00,61.6,58.0,30.03,NE,35,0.0,2.0,88,0.00,,,0.00,Wunderground v.1.15,2013-07-11 08:50:00,
2013-07-11 04:00:00,61.4,57.8,30.03,NNE,28,0.0,0.0,88,0.00,,,0.00,Wunderground v.1.15,2013-07-11 09:00:00,
2013-07-11 04:10:00,61.2,57.6,30.04,NNE,28,0.0,0.0,88,0.00,,,0.00,Wunderground v.1.15,2013-07-11 09:10:00,
2013-07-11 04:20:00,61.0,57.4,30.04,NNE,28,0.0,0.0,88,0.00,,,0.00,Wunderground v.1.15,2013-07-11 09:20:00,
2013-07-11 04:25:00,60.9,57.3,30.04,NNE,28,0.0,0.0,88,0.00,,,0.00,Wunderground v.1.15,2013-07-11 09:25:00,
2013-07-11 04:35:00,60.7,57.1,30.04,NNE,28,0.0,0.0,88,0.00,,,0.00,Wunderground v.1.15,2013-07-11 09:35:00,
2013-07-11 04:40:00,60.6,57.0,30.04,NNE,28,0.0,0.0,88,0.00,,,0.00,Wunderground v.1.15,2013-07-11 09:40:00,
2013-07-11 04:45:00,60.5,56.6,30.04,NNE,28,0.0,0.0,87,0.00,,,0.00,Wunderground v.1.15,2013-07-11 09:45:00,
2013-07-11 04:55:00,60.3,56.7,30.05,NNE,28,0.0,0.0,88,0.00,,,0.00,Wunderground v.1.15,2013-07-11 09:55:00,
2013-07-11 05:00:00,60.2,56.3,30.05,NNE,28,0.0,0.0,87,0.00,,,0.00,Wunderground v.1.15,2013-07-11 10:00:00,
2013-07-11 05:10:00,60.0,56.1,30.05,NNE,28,0.0,0.0,87,0.00,,,0.00,Wunderground v.1.15,2013-07-11 10:10:00,
2013-07-11 05:15:00,59.9,56.0,30.05,NNE,28,0.0,0.0,87,0.00,,,0.00,Wunderground v.1.15,2013-07-11 10:15:00,
2013-07-11 05:25:00,59.7,55.8,30.05,NNE,28,0.0,0.0,87,0.00,,,0.00,Wunderground v.1.15,2013-07-11 10:25:00,
2013-07-11 05:30:00,59.6,55.7,30.05,NNE,27,0.0,0.0,87,0.00,,,0.00,Wunderground v.1.15,2013-07-11 10:30:00,
2013-07-11 05:40:00,59.4,55.8,30.06,NNE,27,0.0,0.0,88,0.00,,,0.00,Wunderground v.1.15,2013-07-11 10:40:00,
2013-07-11 05:45:00,59.4,55.8,30.06,NNE,27,0.0,0.0,88,0.00,,,0.00,Wunderground v.1.15,2013-07-11 10:45:00,
2013-07-11 05:55:00,59.3,55.7,30.06,NNE,26,0.0,0.0,88,0.00,,,0.00,Wunderground v.1.15,2013-07-11 10:55:00,
2013-07-11 06:00:00,59.3,55.7,30.06,NNE,26,0.0,0.0,88,0.00,,,0.00,Wunderground v.1.15,2013-07-11 11:00:00,
2013-07-11 06:10:00,59.3,55.7,30.07,NNE,23,0.0,0.0,88,0.00,,,0.00,Wunderground v.1.15,2013-07-11 11:10:00,
2013-07-11 06:15:00,59.4,56.2,30.07,NNE,23,0.0,0.0,89,0.00,,,0.00,Wunderground v.1.15,2013-07-11 11:15:00,
2013-07-11 06:25:00,59.6,56.4,30.07,NNE,22,0.0,2.0,89,0.00,,,0.00,Wunderground v.1.15,2013-07-11 11:25:00,
2013-07-11 06:30:00,59.7,56.5,30.07,NNE,22,0.0,0.0,89,0.00,,,0.00,Wunderground v.1.15,2013-07-11 11:30:00,
2013-07-11 06:40:00,59.9,56.6,30.07,NNE,22,0.0,0.0,89,0.00,,,0.00,Wunderground v.1.15,2013-07-11 11:40:00,
2013-07-11 06:45:00,60.1,56.8,30.07,NNE,17,0.0,0.0,89,0.00,,,0.00,Wunderground v.1.15,2013-07-11 11:45:00,
2013-07-11 06:50:00,60.3,57.0,30.08,NNE,17,0.0,0.0,89,0.00,,,0.00,Wunderground v.1.15,2013-07-11 11:50:00,
2013-07-11 07:00:00,60.7,57.4,30.07,NNE,17,0.0,0.0,89,0.00,,,0.00,Wunderground v.1.15,2013-07-11 12:00:00,
2013-07-11 07:05:00,61.0,58.0,30.07,NNE,17,0.0,0.0,90,0.00,,,0.00,Wunderground v.1.15,2013-07-11 12:05:00,
2013-07-11 07:15:00,61.8,58.8,30.07,NNW,341,1.0,1.0,90,0.00,,,0.00,Wunderground v.1.15,2013-07-11 12:15:00,
2013-07-11 07:20:00,62.4,59.4,30.07,NNW,342,0.0,0.0,90,0.00,,,0.00,Wunderground v.1.15,2013-07-11 12:20:00,
2013-07-11 07:30:00,63.9,60.3,30.07,NNW,342,0.0,0.0,88,0.00,,,0.00,Wunderground v.1.15,2013-07-11 12:30:00,
2013-07-11 07:35:00,64.8,60.8,30.08,NNW,341,0.0,0.0,87,0.00,,,0.00,Wunderground v.1.15,2013-07-11 12:35:00,
2013-07-11 07:40:00,65.8,61.2,30.08,NNW,340,0.0,0.0,85,0.00,,,0.00,Wunderground v.1.15,2013-07-11 12:40:00,
2013-07-11 07:50:00,67.8,61.8,30.08,North,5,1.0,1.0,81,0.00,,,0.00,Wunderground v.1.15,2013-07-11 12:50:00,
2013-07-11 07:55:00,68.8,62.4,30.08,NNW,341,1.0,1.0,80,0.00,,,0.00,Wunderground v.1.15,2013-07-11 12:55:00,
2013-07-11 08:05:00,70.9,62.6,30.08,North,5,1.0,1.0,75,0.00,,,0.00,Wunderground v.1.15,2013-07-11 13:05:00,
2013-07-11 08:10:00,71.9,62.8,30.08,NNW,341,2.0,2.0,73,0.00,,,0.00,Wunderground v.1.15,2013-07-11 13:10:00,
2013-07-11 08:15:00,72.7,62.8,30.08,NNW,338,1.0,2.0,71,0.00,,,0.00,Wunderground v.1.15,2013-07-11 13:15:00,
2013-07-11 08:25:00,74.2,62.5,30.09,NNW,341,3.0,3.0,67,0.00,,,0.00,Wunderground v.1.15,2013-07-11 13:25:00,
2013-07-11 08:30:00,74.8,63.5,30.09,NNW,329,2.0,2.0,68,0.00,,,0.00,Wunderground v.1.15,2013-07-11 13:30:00,
2013-07-11 08:35:00,75.5,63.3,30.09,NNW,341,2.0,2.0,66,0.00,,,0.00,Wunderground v.1.15,2013-07-11 13:35:00,
2013-07-11 08:45:00,76.9,63.8,30.09,NNW,331,1.0,2.0,64,0.00,,,0.00,Wunderground v.1.15,2013-07-11 13:45:00,
2013-07-11 08:55:00,77.9,64.3,30.09,NNW,340,1.0,2.0,63,0.00,,,0.00,Wunderground v.1.15,2013-07-11 13:55:00,
2013-07-11 09:00:00,78.5,64.9,30.09,NNW,340,2.0,4.0,63,0.00,,,0.00,Wunderground v.1.15,2013-07-11 14:00:00,
2013-07-11 09:05:00,79.1,64.5,30.09,NNW,337,2.0,4.0,61,0.00,,,0.00,Wunderground v.1.15,2013-07-11 14:05:00,
2013-07-11 09:15:00,79.9,64.3,30.09,North,5,2.0,4.0,59,0.00,,,0.00,Wunderground v.1.15,2013-07-11 14:15:00,
2013-07-11 09:20:00,80.1,64.0,30.09,NW,319,3.0,3.0,58,0.00,,,0.00,Wunderground v.1.15,2013-07-11 14:20:00,
2013-07-11 09:25:00,80.2,63.6,30.09,NNE,16,3.0,3.0,57,0.00,,,0.00,Wunderground v.1.15,2013-07-11 14:25:00,
2013-07-11 09:35:00,80.5,62.3,30.09,North,5,3.0,7.0,54,0.00,,,0.00,Wunderground v.1.15,2013-07-11 14:35:00,
2013-07-11 09:40:00,80.6,62.9,30.09,North,5,3.0,3.0,55,0.00,,,0.00,Wunderground v.1.15,2013-07-11 14:40:00,
2013-07-11 09:50:00,81.2,64.0,30.09,NNW,340,2.0,2.0,56,0.00,,,0.00,Wunderground v.1.15,2013-07-11 14:50:00,
2013-07-11 09:55:00,81.6,61.7,30.09,North,360,2.0,6.0,51,0.00,,,0.00,Wunderground v.1.15,2013-07-11 14:55:00,
2013-07-11 10:00:00,81.8,62.5,30.09,NNW,340,3.0,3.0,52,0.00,,,0.00,Wunderground v.1.15,2013-07-11 15:00:00,
2013-07-11 10:10:00,82.5,63.6,30.09,North,5,2.0,2.0,53,0.00,,,0.00,Wunderground v.1.15,2013-07-11 15:10:00,
2013-07-11 10:15:00,82.9,62.9,30.09,NNE,28,2.0,2.0,51,0.00,,,0.00,Wunderground v.1.15,2013-07-11 15:15:00,
2013-07-11 10:25:00,83.1,63.1,30.09,NE,40,1.0,3.0,51,0.00,,,0.00,Wunderground v.1.15,2013-07-11 15:25:00,
2013-07-11 10:30:00,83.2,64.8,30.10,NNW,327,1.0,2.0,54,0.00,,,0.00,Wunderground v.1.15,2013-07-11 15:30:00,
2013-07-11 10:35:00,83.4,63.4,30.10,NNE,20,1.0,3.0,51,0.00,,,0.00,Wunderground v.1.15,2013-07-11 15:35:00,
2013-07-11 10:45:00,84.0,62.2,30.10,NNE,13,1.0,1.0,48,0.00,,,0.00,Wunderground v.1.15,2013-07-11 15:45:00,
2013-07-11 10:50:00,84.3,61.3,30.10,North,5,1.0,1.0,46,0.00,,,0.00,Wunderground v.1.15,2013-07-11 15:50:00,
2013-07-11 10:55:00,84.4,62.6,30.10,North,5,1.0,2.0,48,0.00,,,0.00,Wunderground v.1.15,2013-07-11 15:55:00,
2013-07-11 11:00:00,84.5,63.8,30.10,NE,55,1.0,1.0,50,0.00,,,0.00,Wunderground v.1.15,2013-07-11 16:00:00,
2013-07-11 11:10:00,84.9,63.0,30.10,North,5,1.0,5.0,48,0.00,,,0.00,Wunderground v.1.15,2013-07-11 16:10:00,
2013-07-11 11:15:00,85.2,63.3,30.10,ENE,67,1.0,5.0,48,0.00,,,0.00,Wunderground v.1.15,2013-07-11 16:15:00,
2013-07-11 11:25:00,84.5,62.7,30.10,North,11,2.0,4.0,48,0.00,,,0.00,Wunderground v.1.15,2013-07-11 16:25:00,
2013-07-11 11:35:00,84.3,62.5,30.10,NNE,22,1.0,3.0,48,0.00,,,0.00,Wunderground v.1.15,2013-07-11 16:35:00,
2013-07-11 11:45:00,84.9,62.4,30.10,North,9,1.0,1.0,47,0.00,,,0.00,Wunderground v.1.15,2013-07-11 16:45:00,
2013-07-11 11:50:00,85.0,63.7,30.10,NW,311,1.0,7.0,49,0.00,,,0.00,Wunderground v.1.15,2013-07-11 16:50:00,
2013-07-11 12:05:00,83.5,60.5,30.10,NNE,15,3.0,3.0,46,0.00,,,0.00,Wunderground v.1.15,2013-07-11 17:05:00,
2013-07-11 12:10:00,83.2,63.2,30.10,NNW,333,2.0,2.0,51,0.00,,,0.00,Wunderground v.1.15,2013-07-11 17:10:00,
2013-07-11 12:15:00,83.2,61.5,30.10,North,360,2.0,3.0,48,0.00,,,0.00,Wunderground v.1.15,2013-07-11 17:15:00,
2013-07-11 12:25:00,84.0,63.9,30.10,NNE,29,2.0,4.0,51,0.00,,,0.00,Wunderground v.1.15,2013-07-11 17:25:00,
2013-07-11 12:35:00,83.6,61.8,30.10,NNE,15,2.0,2.0,48,0.00,,,0.00,Wunderground v.1.15,2013-07-11 17:35:00,
2013-07-11 12:40:00,83.3,63.3,30.10,NNE,24,1.0,2.0,51,0.00,,,0.00,Wunderground v.1.15,2013-07-11 17:40:00,
2013-07-11 12:50:00,83.3,61.6,30.10,North,11,2.0,2.0,48,0.00,,,0.00,Wunderground v.1.15,2013-07-11 17:50:00,
2013-07-11 12:55:00,83.5,61.1,30.09,ENE,71,2.0,2.0,47,0.00,,,0.00,Wunderground v.1.15,2013-07-11 17:55:00,
2013-07-11 13:05:00,83.5,62.9,30.09,ENE,59,1.0,2.0,50,0.00,,,0.00,Wunderground v.1.15,2013-07-11 18:05:00,
2013-07-11 13:10:00,83.6,60.0,30.09,East,82,1.0,2.0,45,0.00,,,0.00,Wunderground v.1.15,2013-07-11 18:10:00,
2013-07-11 13:15:00,83.4,62.2,30.09,East,80,2.0,3.0,49,0.00,,,0.00,Wunderground v.1.15,2013-07-11 18:15:00,
2013-07-11 13:25:00,83.2,60.9,30.09,NW,325,2.0,2.0,47,0.00,,,0.00,Wunderground v.1.15,2013-07-11 18:25:00,
2013-07-11 13:30:00,82.9,60.6,30.09,North,360,2.0,6.0,47,0.00,,,0.00,Wunderground v.1.15,2013-07-11 18:30:00,
2013-07-11 13:40:00,82.6,60.9,30.09,NNW,334,2.0,2.0,48,0.00,,,0.00,Wunderground v.1.15,2013-07-11 18:40:00,
2013-07-11 13:45:00,82.7,63.3,30.09,NE,41,2.0,2.0,52,0.00,,,0.00,Wunderground v.1.15,2013-07-11 18:45:00,
2013-07-11 13:50:00,83.0,64.1,30.09,NE,56,1.0,1.0,53,0.00,,,0.00,Wunderground v.1.15,2013-07-11 18:50:00,
2013-07-11 13:55:00,83.3,62.7,30.09,NNW,340,1.0,1.0,50,0.00,,,0.00,Wunderground v.1.15,2013-07-11 18:55:00,
2013-07-11 14:05:00,83.7,61.9,30.09,North,9,1.0,2.0,48,0.00,,,0.00,Wunderground v.1.15,2013-07-11 19:05:00,
2013-07-11 14:10:00,83.5,62.9,30.09,North,5,2.0,2.0,50,0.00,,,0.00,Wunderground v.1.15,2013-07-11 19:10:00,
2013-07-11 14:20:00,83.6,62.4,30.09,NNE,26,2.0,2.0,49,0.00,,,0.00,Wunderground v.1.15,2013-07-11 19:20:00,
2013-07-11 14:35:00,83.7,62.5,30.09,NNW,339,1.0,2.0,49,0.00,,,0.00,Wunderground v.1.15,2013-07-11 19:35:00,
2013-07-11 14:40:00,83.9,62.1,30.09,NNE,28,1.0,1.0,48,0.00,,,0.00,Wunderground v.1.15,2013-07-11 19:40:00,
2013-07-11 14:50:00,83.8,64.3,30.09,NE,52,0.0,0.0,52,0.00,,,0.00,Wunderground v.1.15,2013-07-11 19:50:00,
2013-07-11 14:55:00,83.5,62.3,30.09,NE,52,0.0,0.0,49,0.00,,,0.00,Wunderground v.1.15,2013-07-11 19:55:00,
2013-07-11 15:00:00,83.0,63.0,30.09,NE,54,0.0,0.0,51,0.00,,,0.00,Wunderground v.1.15,2013-07-11 20:00:00,
2013-07-11 15:10:00,82.3,62.4,30.09,NE,40,1.0,1.0,51,0.00,,,0.00,Wunderground v.1.15,2013-07-11 20:10:00,
2013-07-11 15:20:00,82.1,62.7,30.09,NE,41,0.0,0.0,52,0.00,,,0.00,Wunderground v.1.15,2013-07-11 20:20:00,
2013-07-11 15:25:00,82.1,61.6,30.09,NNW,333,1.0,1.0,50,0.00,,,0.00,Wunderground v.1.15,2013-07-11 20:25:00,
2013-07-11 15:30:00,82.3,64.0,30.09,North,5,1.0,1.0,54,0.00,,,0.00,Wunderground v.1.15,2013-07-11 20:30:00,
2013-07-11 15:40:00,82.3,62.9,30.08,NNW,333,1.0,1.0,52,0.00,,,0.00,Wunderground v.1.15,2013-07-11 20:40:00,
2013-07-11 15:45:00,82.1,59.9,30.08,NNE,14,2.0,2.0,47,0.00,,,0.00,Wunderground v.1.15,2013-07-11 20:45:00,
2013-07-11 15:55:00,81.7,64.5,30.08,NE,51,1.0,3.0,56,0.00,,,0.00,Wunderground v.1.15,2013-07-11 20:55:00,
2013-07-11 16:00:00,81.2,61.9,30.08,NE,39,1.0,1.0,52,0.00,,,0.00,Wunderground v.1.15,2013-07-11 21:00:00,
2013-07-11 16:05:00,80.8,62.1,30.08,ENE,61,1.0,2.0,53,0.00,,,0.00,Wunderground v.1.15,2013-07-11 21:05:00,
2013-07-11 16:10:00,80.6,61.3,30.08,East,88,3.0,3.0,52,0.00,,,0.00,Wunderground v.1.15,2013-07-11 21:10:00,
2013-07-11 16:20:00,80.6,60.8,30.08,North,5,2.0,2.0,51,0.00,,,0.00,Wunderground v.1.15,2013-07-11 21:20:00,
2013-07-11 16:30:00,80.4,62.2,30.08,ENE,68,1.0,3.0,54,0.00,,,0.00,Wunderground v.1.15,2013-07-11 21:30:00,
2013-07-11 16:35:00,80.1,63.0,30.08,ENE,68,1.0,3.0,56,0.00,,,0.00,Wunderground v.1.15,2013-07-11 21:35:00,
2013-07-11 16:45:00,79.7,62.6,30.08,ENE,59,1.0,2.0,56,0.00,,,0.00,Wunderground v.1.15,2013-07-11 21:45:00,
2013-07-11 17:00:00,79.5,61.9,30.08,NNE,13,1.0,1.0,55,0.00,,,0.00,Wunderground v.1.15,2013-07-11 22:00:00,
2013-07-11 17:05:00,79.4,61.3,30.08,North,5,0.0,1.0,54,0.00,,,0.00,Wunderground v.1.15,2013-07-11 22:05:00,
2013-07-11 17:10:00,79.4,62.3,30.08,ENE,74,0.0,1.0,56,0.00,,,0.00,Wunderground v.1.15,2013-07-11 22:10:00,
2013-07-11 17:15:00,79.4,62.8,30.08,NNE,19,1.0,1.0,57,0.00,,,0.00,Wunderground v.1.15,2013-07-11 22:15:00,
2013-07-11 17:20:00,79.2,61.6,30.08,ENE,74,1.0,1.0,55,0.00,,,0.00,Wunderground v.1.15,2013-07-11 22:20:00,
2013-07-11 17:30:00,78.7,60.7,30.08,ENE,69,0.0,0.0,54,0.00,,,0.00,Wunderground v.1.15,2013-07-11 22:30:00,
2013-07-11 17:35:00,78.5,62.5,30.07,ENE,67,0.0,1.0,58,0.00,,,0.00,Wunderground v.1.15,2013-07-11 22:35:00,
2013-07-11 17:40:00,78.4,60.4,30.07,NNW,341,0.0,0.0,54,0.00,,,0.00,Wunderground v.1.15,2013-07-11 22:40:00,
2013-07-11 17:50:00,78.3,60.3,30.07,North,5,0.0,0.0,54,0.00,,,0.00,Wunderground v.1.15,2013-07-11 22:50:00,
2013-07-11 18:00:00,78.0,61.0,30.07,North,360,0.0,0.0,56,0.00,,,0.00,Wunderground v.1.15,2013-07-11 23:00:00,
2013-07-11 18:05:00,77.9,59.9,30.07,NNE,25,0.0,0.0,54,0.00,,,0.00,Wunderground v.1.15,2013-07-11 23:05:00,
2013-07-11 18:15:00,77.5,59.5,30.07,ENE,70,0.0,0.0,54,0.00,,,0.00,Wunderground v.1.15,2013-07-11 23:15:00,
2013-07-11 18:20:00,77.3,59.4,30.07,NNW,338,0.0,0.0,54,0.00,,,0.00,Wunderground v.1.15,2013-07-11 23:20:00,
2013-07-11 18:25:00,77.1,59.7,30.07,NNW,338,0.0,0.0,55,0.00,,,0.00,Wunderground v.1.15,2013-07-11 23:25:00,
2013-07-11 18:30:00,76.9,60.0,30.07,NNW,338,0.0,0.0,56,0.00,,,0.00,Wunderground v.1.15,2013-07-11 23:30:00,
2013-07-11 18:40:00,76.5,59.1,30.07,NNE,13,0.0,0.0,55,0.00,,,0.00,Wunderground v.1.15,2013-07-11 23:40:00,
2013-07-11 18:50:00,76.1,60.2,30.07,NNE,13,0.0,0.0,58,0.00,,,0.00,Wunderground v.1.15,2013-07-11 23:50:00,
2013-07-11 18:55:00,76.0,60.2,30.07,NNE,13,0.0,0.0,58,0.00,,,0.00,Wunderground v.1.15,2013-07-11 23:55:00,
2013-07-11 19:05:00,75.8,60.4,30.07,NNE,13,0.0,0.0,59,0.00,,,0.00,Wunderground v.1.15,2013-07-12 00:05:00,
2013-07-11 19:15:00,75.4,60.1,30.07,NNE,13,0.0,0.0,59,0.00,,,0.00,Wunderground v.1.15,2013-07-12 00:15:00,
2013-07-11 19:20:00,75.2,60.8,30.07,NNE,13,0.0,0.0,61,0.00,,,0.00,Wunderground v.1.15,2013-07-12 00:20:00,
2013-07-11 19:25:00,75.0,60.6,30.07,NNE,13,0.0,0.0,61,0.00,,,0.00,Wunderground v.1.15,2013-07-12 00:25:00,
2013-07-11 19:35:00,74.5,60.2,30.07,NNE,13,0.0,0.0,61,0.00,,,0.00,Wunderground v.1.15,2013-07-12 00:35:00,
2013-07-11 19:40:00,74.3,60.9,30.07,NNE,13,0.0,0.0,63,0.00,,,0.00,Wunderground v.1.15,2013-07-12 00:40:00,
2013-07-11 19:45:00,74.0,60.6,30.07,NNE,12,0.0,0.0,63,0.00,,,0.00,Wunderground v.1.15,2013-07-12 00:45:00,
2013-07-11 19:55:00,73.4,60.9,30.07,NNE,13,0.0,0.0,65,0.00,,,0.00,Wunderground v.1.15,2013-07-12 00:55:00,
2013-07-11 20:05:00,72.8,61.2,30.06,NNE,12,0.0,0.0,67,0.00,,,0.00,Wunderground v.1.15,2013-07-12 01:05:00,
2013-07-11 20:10:00,72.4,61.2,30.07,NNE,12,0.0,0.0,68,0.00,,,0.00,Wunderground v.1.15,2013-07-12 01:10:00,
2013-07-11 20:15:00,72.1,61.0,30.06,NNE,13,0.0,0.0,68,0.00,,,0.00,Wunderground v.1.15,2013-07-12 01:15:00,
2013-07-11 20:25:00,71.5,60.8,30.06,NNE,12,0.0,0.0,69,0.00,,,0.00,Wunderground v.1.15,2013-07-12 01:25:00,
2013-07-11 20:30:00,71.0,60.3,30.06,NNE,13,0.0,0.0,69,0.00,,,0.00,Wunderground v.1.15,2013-07-12 01:30:00,
2013-07-11 20:35:00,70.7,60.4,30.06,NNE,12,0.0,0.0,70,0.00,,,0.00,Wunderground v.1.15,2013-07-12 01:35:00,
2013-07-11 20:45:00,70.0,60.6,30.06,NNE,12,0.0,0.0,72,0.00,,,0.00,Wunderground v.1.15,2013-07-12 01:45:00,
2013-07-11 20:50:00,69.6,60.6,30.06,NNE,12,0.0,0.0,73,0.00,,,0.00,Wunderground v.1.15,2013-07-12 01:50:00,
2013-07-11 20:55:00,69.2,60.2,30.07,NNE,13,0.0,0.0,73,0.00,,,0.00,Wunderground v.1.15,2013-07-12 01:55:00,
2013-07-11 21:05:00,68.5,59.9,30.07,NNE,12,0.0,0.0,74,0.00,,,0.00,Wunderground v.1.15,2013-07-12 02:05:00,
2013-07-11 21:10:00,68.1,59.9,30.07,NNE,13,0.0,0.0,75,0.00,,,0.00,Wunderground v.1.15,2013-07-12 02:10:00,
2013-07-11 21:15:00,67.7,59.5,30.07,NNE,12,0.0,0.0,75,0.00,,,0.00,Wunderground v.1.15,2013-07-12 02:15:00,
2013-07-11 21:25:00,67.2,59.0,30.08,NNE,12,0.0,0.0,75,0.00,,,0.00,Wunderground v.1.15,2013-07-12 02:25:00,
2013-07-11 21:30:00,66.8,59.0,30.08,NNE,12,0.0,0.0,76,0.00,,,0.00,Wunderground v.1.15,2013-07-12 02:30:00,
2013-07-11 21:40:00,66.3,58.9,30.08,NNE,13,0.0,0.0,77,0.00,,,0.00,Wunderground v.1.15,2013-07-12 02:40:00,
2013-07-11 21:45:00,66.0,58.9,30.08,NNE,12,0.0,0.0,78,0.00,,,0.00,Wunderground v.1.15,2013-07-12 02:45:00,
2013-07-11 21:50:00,65.8,58.7,30.08,NNE,13,0.0,0.0,78,0.00,,,0.00,Wunderground v.1.15,2013-07-12 02:50:00,
2013-07-11 22:00:00,65.3,58.3,30.08,NNE,12,0.0,0.0,78,0.00,,,0.00,Wunderground v.1.15,2013-07-12 03:00:00,
2013-07-11 22:05:00,65.0,58.0,30.09,NNE,13,0.0,0.0,78,0.00,,,0.00,Wunderground v.1.15,2013-07-12 03:05:00,
2013-07-11 22:20:00,64.2,57.2,30.09,NNE,12,0.0,0.0,78,0.00,,,0.00,Wunderground v.1.15,2013-07-12 03:20:00,
2013-07-11 22:25:00,64.0,57.0,30.09,NNE,13,0.0,0.0,78,0.00,,,0.00,Wunderground v.1.15,2013-07-12 03:25:00,
2013-07-11 22:30:00,63.8,57.2,30.09,NNE,12,0.0,0.0,79,0.00,,,0.00,Wunderground v.1.15,2013-07-12 03:30:00,
2013-07-11 22:35:00,63.5,56.9,30.09,NNE,13,0.0,0.0,79,0.00,,,0.00,Wunderground v.1.15,2013-07-12 03:35:00,
2013-07-11 22:45:00,63.1,56.5,30.09,NNE,13,0.0,0.0,79,0.00,,,0.00,Wunderground v.1.15,2013-07-12 03:45:00,
2013-07-11 22:50:00,62.9,56.3,30.09,NNE,13,0.0,0.0,79,0.00,,,0.00,Wunderground v.1.15,2013-07-12 03:50:00,
2013-07-11 23:00:00,62.5,55.9,30.09,NNE,13,0.0,0.0,79,0.00,,,0.00,Wunderground v.1.15,2013-07-12 04:00:00,
2013-07-11 23:05:00,62.3,55.7,30.09,NNE,13,0.0,0.0,79,0.00,,,0.00,Wunderground v.1.15,2013-07-12 04:05:00,
2013-07-11 23:10:00,62.1,55.9,30.09,NNE,13,0.0,0.0,80,0.00,,,0.00,Wunderground v.1.15,2013-07-12 04:10:00,
2013-07-11 23:20:00,61.7,55.8,30.09,NNE,12,0.0,0.0,81,0.00,,,0.00,Wunderground v.1.15,2013-07-12 04:20:00,
2013-07-11 23:25:00,61.6,55.7,30.09,NNE,12,0.0,0.0,81,0.00,,,0.00,Wunderground v.1.15,2013-07-12 04:25:00,
2013-07-11 23:30:00,61.4,55.5,30.09,NNE,13,0.0,0.0,81,0.00,,,0.00,Wunderground v.1.15,2013-07-12 04:30:00,
2013-07-11 23:40:00,61.0,55.5,30.09,NNE,12,0.0,0.0,82,0.00,,,0.00,Wunderground v.1.15,2013-07-12 04:40:00,
2013-07-11 23:45:00,60.8,55.3,30.09,NNE,12,0.0,0.0,82,0.00,,,0.00,Wunderground v.1.15,2013-07-12 04:45:00,
2013-07-11 23:55:00,60.5,55.0,30.10,NNE,13,0.0,0.0,82,0.00,,,0.00,Wunderground v.1.15,2013-07-12 04:55:00,